sensor_id;sensor_type;location;lat;lon;timestamp;P1;durP1;ratioP1;P2;durP2;ratioP2
34930;SDS011;21134;49.646;8.560;2023-03-20T00:02:11;2.13;;;0.60;;
34930;SDS011;21134;49.646;8.560;2023-03-20T00:04:44;0.80;;;0.80;;
34930;SDS011;21134;49.646;8.560;2023-03-20T00:07:11;4.07;;;2.03;;
34930;SDS011;21134;49.646;8.560;2023-03-20T00:09:37;1.47;;;1.37;;
34930;SDS011;21134;49.646;8.560;2023-03-20T00:12:06;3.73;;;1.63;;
34930;SDS011;21134;49.646;8.560;2023-03-20T00:14:39;0.87;;;0.70;;
34930;SDS011;21134;49.646;8.560;2023-03-20T00:17:08;1.30;;;1.03;;
34930;SDS011;21134;49.646;8.560;2023-03-20T00:19:44;3.23;;;0.83;;
34930;SDS011;21134;49.646;8.560;2023-03-20T00:22:11;0.80;;;0.80;;
34930;SDS011;21134;49.646;8.560;2023-03-20T00:24:37;0.67;;;0.67;;
34930;SDS011;21134;49.646;8.560;2023-03-20T00:27:04;0.93;;;0.93;;
34930;SDS011;21134;49.646;8.560;2023-03-20T00:29:31;1.57;;;0.90;;
34930;SDS011;21134;49.646;8.560;2023-03-20T00:31:58;4.13;;;1.57;;
34930;SDS011;21134;49.646;8.560;2023-03-20T00:34:27;0.70;;;0.70;;
34930;SDS011;21134;49.646;8.560;2023-03-20T00:36:55;1.07;;;0.97;;
34930;SDS011;21134;49.646;8.560;2023-03-20T00:39:22;3.23;;;1.20;;
34930;SDS011;21134;49.646;8.560;2023-03-20T00:41:49;1.47;;;1.20;;
34930;SDS011;21134;49.646;8.560;2023-03-20T00:44:19;1.93;;;1.20;;
34930;SDS011;21134;49.646;8.560;2023-03-20T00:46:48;2.43;;;2.07;;
34930;SDS011;21134;49.646;8.560;2023-03-20T00:49:17;2.47;;;1.63;;
34930;SDS011;21134;49.646;8.560;2023-03-20T00:51:45;0.70;;;0.70;;
34930;SDS011;21134;49.646;8.560;2023-03-20T00:54:13;3.17;;;1.37;;
34930;SDS011;21134;49.646;8.560;2023-03-20T00:56:42;1.30;;;1.20;;
34930;SDS011;21134;49.646;8.560;2023-03-20T00:59:13;1.07;;;1.00;;
34930;SDS011;21134;49.646;8.560;2023-03-20T01:01:43;2.17;;;1.43;;
34930;SDS011;21134;49.646;8.560;2023-03-20T01:04:10;2.80;;;0.93;;
34930;SDS011;21134;49.646;8.560;2023-03-20T01:06:39;2.43;;;1.53;;
34930;SDS011;21134;49.646;8.560;2023-03-20T01:09:07;1.67;;;1.17;;
34930;SDS011;21134;49.646;8.560;2023-03-20T01:11:33;0.80;;;0.70;;
34930;SDS011;21134;49.646;8.560;2023-03-20T01:14:00;1.93;;;0.90;;
34930;SDS011;21134;49.646;8.560;2023-03-20T01:16:27;3.30;;;1.50;;
34930;SDS011;21134;49.646;8.560;2023-03-20T01:18:54;2.03;;;1.40;;
34930;SDS011;21134;49.646;8.560;2023-03-20T01:21:20;2.53;;;1.50;;
34930;SDS011;21134;49.646;8.560;2023-03-20T01:23:48;3.53;;;1.47;;
34930;SDS011;21134;49.646;8.560;2023-03-20T01:26:19;1.63;;;1.53;;
34930;SDS011;21134;49.646;8.560;2023-03-20T01:28:50;2.67;;;1.40;;
34930;SDS011;21134;49.646;8.560;2023-03-20T01:31:17;2.07;;;1.30;;
34930;SDS011;21134;49.646;8.560;2023-03-20T01:33:44;11.03;;;1.10;;
34930;SDS011;21134;49.646;8.560;2023-03-20T01:36:12;0.73;;;0.73;;
34930;SDS011;21134;49.646;8.560;2023-03-20T01:38:41;2.63;;;1.80;;
34930;SDS011;21134;49.646;8.560;2023-03-20T01:41:10;1.93;;;1.27;;
34930;SDS011;21134;49.646;8.560;2023-03-20T01:43:40;2.20;;;1.13;;
34930;SDS011;21134;49.646;8.560;2023-03-20T01:46:14;1.43;;;1.23;;
34930;SDS011;21134;49.646;8.560;2023-03-20T01:50:13;1.80;;;1.63;;
34930;SDS011;21134;49.646;8.560;2023-03-20T01:52:09;1.13;;;1.03;;
34930;SDS011;21134;49.646;8.560;2023-03-20T01:54:36;15.17;;;2.30;;
34930;SDS011;21134;49.646;8.560;2023-03-20T01:57:07;2.60;;;2.13;;
34930;SDS011;21134;49.646;8.560;2023-03-20T01:59:39;2.53;;;1.70;;
34930;SDS011;21134;49.646;8.560;2023-03-20T02:02:10;2.07;;;1.87;;
34930;SDS011;21134;49.646;8.560;2023-03-20T02:04:42;1.47;;;1.37;;
34930;SDS011;21134;49.646;8.560;2023-03-20T02:07:13;2.17;;;1.73;;
34930;SDS011;21134;49.646;8.560;2023-03-20T02:09:45;2.83;;;2.03;;
34930;SDS011;21134;49.646;8.560;2023-03-20T02:12:12;1.63;;;1.50;;
34930;SDS011;21134;49.646;8.560;2023-03-20T02:14:40;2.73;;;1.53;;
34930;SDS011;21134;49.646;8.560;2023-03-20T02:17:08;1.87;;;1.17;;
34930;SDS011;21134;49.646;8.560;2023-03-20T02:19:38;2.73;;;1.63;;
34930;SDS011;21134;49.646;8.560;2023-03-20T02:22:29;2.70;;;1.70;;
34930;SDS011;21134;49.646;8.560;2023-03-20T02:28:10;1.27;;;1.03;;
34930;SDS011;21134;49.646;8.560;2023-03-20T02:31:04;27.80;;;1.83;;
34930;SDS011;21134;49.646;8.560;2023-03-20T02:40:09;2.23;;;1.67;;
34930;SDS011;21134;49.646;8.560;2023-03-20T02:42:43;3.20;;;2.33;;
34930;SDS011;21134;49.646;8.560;2023-03-20T02:45:16;9.13;;;1.33;;
34930;SDS011;21134;49.646;8.560;2023-03-20T02:47:53;3.93;;;2.10;;
34930;SDS011;21134;49.646;8.560;2023-03-20T02:50:31;3.00;;;1.57;;
34930;SDS011;21134;49.646;8.560;2023-03-20T02:53:05;1.70;;;1.27;;
34930;SDS011;21134;49.646;8.560;2023-03-20T02:55:46;2.10;;;1.90;;
34930;SDS011;21134;49.646;8.560;2023-03-20T02:58:18;2.50;;;1.10;;
34930;SDS011;21134;49.646;8.560;2023-03-20T03:00:49;1.97;;;1.53;;
34930;SDS011;21134;49.646;8.560;2023-03-20T03:03:21;1.20;;;1.10;;
34930;SDS011;21134;49.646;8.560;2023-03-20T03:05:54;8.53;;;1.40;;
34930;SDS011;21134;49.646;8.560;2023-03-20T03:08:26;2.93;;;1.63;;
34930;SDS011;21134;49.646;8.560;2023-03-20T03:10:58;1.97;;;1.67;;
34930;SDS011;21134;49.646;8.560;2023-03-20T03:13:29;4.00;;;1.43;;
34930;SDS011;21134;49.646;8.560;2023-03-20T03:15:59;2.20;;;1.20;;
34930;SDS011;21134;49.646;8.560;2023-03-20T03:18:31;1.20;;;1.10;;
34930;SDS011;21134;49.646;8.560;2023-03-20T03:21:01;0.80;;;0.77;;
34930;SDS011;21134;49.646;8.560;2023-03-20T03:23:31;2.27;;;1.23;;
34930;SDS011;21134;49.646;8.560;2023-03-20T03:26:05;1.13;;;0.93;;
34930;SDS011;21134;49.646;8.560;2023-03-20T03:28:36;1.37;;;1.27;;
34930;SDS011;21134;49.646;8.560;2023-03-20T03:31:08;1.60;;;1.37;;
34930;SDS011;21134;49.646;8.560;2023-03-20T03:33:39;4.23;;;2.73;;
34930;SDS011;21134;49.646;8.560;2023-03-20T03:36:11;1.70;;;1.10;;
34930;SDS011;21134;49.646;8.560;2023-03-20T03:38:43;1.97;;;1.47;;
34930;SDS011;21134;49.646;8.560;2023-03-20T03:41:23;2.90;;;1.33;;
34930;SDS011;21134;49.646;8.560;2023-03-20T03:43:57;1.33;;;1.20;;
34930;SDS011;21134;49.646;8.560;2023-03-20T03:46:33;0.90;;;0.90;;
34930;SDS011;21134;49.646;8.560;2023-03-20T03:49:06;1.40;;;0.97;;
34930;SDS011;21134;49.646;8.560;2023-03-20T03:51:37;9.13;;;2.60;;
34930;SDS011;21134;49.646;8.560;2023-03-20T03:54:08;1.83;;;1.73;;
34930;SDS011;21134;49.646;8.560;2023-03-20T03:56:39;2.23;;;0.80;;
34930;SDS011;21134;49.646;8.560;2023-03-20T03:59:10;1.70;;;1.43;;
34930;SDS011;21134;49.646;8.560;2023-03-20T04:01:43;0.90;;;0.90;;
34930;SDS011;21134;49.646;8.560;2023-03-20T04:04:12;1.30;;;1.23;;
34930;SDS011;21134;49.646;8.560;2023-03-20T04:06:40;1.30;;;1.20;;
34930;SDS011;21134;49.646;8.560;2023-03-20T04:09:07;1.83;;;1.73;;
34930;SDS011;21134;49.646;8.560;2023-03-20T04:11:34;5.30;;;1.53;;
34930;SDS011;21134;49.646;8.560;2023-03-20T04:14:02;1.63;;;1.53;;
34930;SDS011;21134;49.646;8.560;2023-03-20T04:16:28;0.47;;;0.47;;
34930;SDS011;21134;49.646;8.560;2023-03-20T04:18:55;1.77;;;1.17;;
34930;SDS011;21134;49.646;8.560;2023-03-20T04:21:21;1.23;;;0.93;;
34930;SDS011;21134;49.646;8.560;2023-03-20T04:23:48;2.53;;;1.43;;
34930;SDS011;21134;49.646;8.560;2023-03-20T04:26:15;2.67;;;1.17;;
34930;SDS011;21134;49.646;8.560;2023-03-20T04:28:42;0.70;;;0.70;;
34930;SDS011;21134;49.646;8.560;2023-03-20T04:31:10;1.77;;;1.03;;
34930;SDS011;21134;49.646;8.560;2023-03-20T04:33:38;1.73;;;1.40;;
34930;SDS011;21134;49.646;8.560;2023-03-20T04:36:06;1.67;;;0.70;;
34930;SDS011;21134;49.646;8.560;2023-03-20T04:38:33;3.70;;;1.03;;
34930;SDS011;21134;49.646;8.560;2023-03-20T04:41:00;0.60;;;0.60;;
34930;SDS011;21134;49.646;8.560;2023-03-20T04:43:27;1.93;;;1.37;;
34930;SDS011;21134;49.646;8.560;2023-03-20T04:45:56;1.67;;;0.80;;
34930;SDS011;21134;49.646;8.560;2023-03-20T04:48:25;1.70;;;1.30;;
34930;SDS011;21134;49.646;8.560;2023-03-20T04:50:51;2.87;;;1.33;;
34930;SDS011;21134;49.646;8.560;2023-03-20T04:53:21;1.10;;;1.00;;
34930;SDS011;21134;49.646;8.560;2023-03-20T04:55:48;1.33;;;0.63;;
34930;SDS011;21134;49.646;8.560;2023-03-20T04:58:17;1.33;;;0.93;;
34930;SDS011;21134;49.646;8.560;2023-03-20T05:00:44;1.77;;;1.53;;
34930;SDS011;21134;49.646;8.560;2023-03-20T05:03:11;1.43;;;1.20;;
34930;SDS011;21134;49.646;8.560;2023-03-20T05:05:38;1.30;;;0.50;;
34930;SDS011;21134;49.646;8.560;2023-03-20T05:08:08;2.20;;;0.53;;
34930;SDS011;21134;49.646;8.560;2023-03-20T05:10:35;1.43;;;1.07;;
34930;SDS011;21134;49.646;8.560;2023-03-20T05:13:04;2.70;;;1.07;;
34930;SDS011;21134;49.646;8.560;2023-03-20T05:15:31;0.60;;;0.60;;
34930;SDS011;21134;49.646;8.560;2023-03-20T05:17:57;1.23;;;0.70;;
34930;SDS011;21134;49.646;8.560;2023-03-20T05:20:24;2.17;;;1.17;;
34930;SDS011;21134;49.646;8.560;2023-03-20T05:22:52;2.13;;;1.27;;
34930;SDS011;21134;49.646;8.560;2023-03-20T05:25:18;1.70;;;1.30;;
34930;SDS011;21134;49.646;8.560;2023-03-20T05:27:45;2.00;;;1.43;;
34930;SDS011;21134;49.646;8.560;2023-03-20T05:30:13;1.70;;;1.40;;
34930;SDS011;21134;49.646;8.560;2023-03-20T05:32:40;1.37;;;1.07;;
34930;SDS011;21134;49.646;8.560;2023-03-20T05:35:07;1.20;;;1.10;;
34930;SDS011;21134;49.646;8.560;2023-03-20T05:37:34;1.83;;;1.40;;
34930;SDS011;21134;49.646;8.560;2023-03-20T05:40:02;4.10;;;1.40;;
34930;SDS011;21134;49.646;8.560;2023-03-20T05:42:30;1.73;;;1.20;;
34930;SDS011;21134;49.646;8.560;2023-03-20T05:44:56;1.03;;;0.93;;
34930;SDS011;21134;49.646;8.560;2023-03-20T05:47:23;2.73;;;1.20;;
34930;SDS011;21134;49.646;8.560;2023-03-20T05:49:49;4.13;;;1.20;;
34930;SDS011;21134;49.646;8.560;2023-03-20T05:52:16;1.40;;;1.30;;
34930;SDS011;21134;49.646;8.560;2023-03-20T05:54:42;1.07;;;1.07;;
34930;SDS011;21134;49.646;8.560;2023-03-20T05:57:10;4.63;;;2.13;;
34930;SDS011;21134;49.646;8.560;2023-03-20T05:59:36;3.90;;;1.43;;
34930;SDS011;21134;49.646;8.560;2023-03-20T06:02:03;1.27;;;1.10;;
34930;SDS011;21134;49.646;8.560;2023-03-20T06:04:29;3.90;;;1.20;;
34930;SDS011;21134;49.646;8.560;2023-03-20T06:06:56;3.50;;;1.07;;
34930;SDS011;21134;49.646;8.560;2023-03-20T06:09:22;0.73;;;0.73;;
34930;SDS011;21134;49.646;8.560;2023-03-20T06:11:49;2.03;;;1.73;;
34930;SDS011;21134;49.646;8.560;2023-03-20T06:14:17;7.47;;;1.97;;
34930;SDS011;21134;49.646;8.560;2023-03-20T06:16:43;5.13;;;1.87;;
34930;SDS011;21134;49.646;8.560;2023-03-20T06:19:10;4.20;;;1.40;;
34930;SDS011;21134;49.646;8.560;2023-03-20T06:21:37;2.10;;;1.60;;
34930;SDS011;21134;49.646;8.560;2023-03-20T06:24:03;6.57;;;1.80;;
34930;SDS011;21134;49.646;8.560;2023-03-20T06:26:30;2.47;;;1.63;;
34930;SDS011;21134;49.646;8.560;2023-03-20T06:28:57;2.23;;;0.77;;
34930;SDS011;21134;49.646;8.560;2023-03-20T06:31:25;4.93;;;1.37;;
34930;SDS011;21134;49.646;8.560;2023-03-20T06:33:51;1.97;;;1.57;;
34930;SDS011;21134;49.646;8.560;2023-03-20T06:36:18;5.53;;;1.80;;
34930;SDS011;21134;49.646;8.560;2023-03-20T06:38:44;2.73;;;1.50;;
34930;SDS011;21134;49.646;8.560;2023-03-20T06:41:11;1.47;;;1.37;;
34930;SDS011;21134;49.646;8.560;2023-03-20T06:43:37;4.87;;;2.03;;
34930;SDS011;21134;49.646;8.560;2023-03-20T06:46:04;0.73;;;0.50;;
34930;SDS011;21134;49.646;8.560;2023-03-20T06:48:33;6.23;;;1.17;;
34930;SDS011;21134;49.646;8.560;2023-03-20T06:51:00;5.20;;;2.70;;
34930;SDS011;21134;49.646;8.560;2023-03-20T06:53:27;2.00;;;1.70;;
34930;SDS011;21134;49.646;8.560;2023-03-20T06:55:53;2.33;;;1.03;;
34930;SDS011;21134;49.646;8.560;2023-03-20T06:58:19;4.40;;;2.27;;
34930;SDS011;21134;49.646;8.560;2023-03-20T07:00:46;2.20;;;1.10;;
34930;SDS011;21134;49.646;8.560;2023-03-20T07:03:12;3.57;;;1.97;;
34930;SDS011;21134;49.646;8.560;2023-03-20T07:05:41;2.33;;;1.87;;
34930;SDS011;21134;49.646;8.560;2023-03-20T07:08:08;6.73;;;2.97;;
34930;SDS011;21134;49.646;8.560;2023-03-20T07:10:35;2.60;;;1.63;;
34930;SDS011;21134;49.646;8.560;2023-03-20T07:13:02;4.20;;;1.90;;
34930;SDS011;21134;49.646;8.560;2023-03-20T07:15:29;3.37;;;1.67;;
34930;SDS011;21134;49.646;8.560;2023-03-20T07:17:56;2.63;;;1.60;;
34930;SDS011;21134;49.646;8.560;2023-03-20T07:20:22;2.93;;;1.77;;
34930;SDS011;21134;49.646;8.560;2023-03-20T07:22:50;4.83;;;2.07;;
34930;SDS011;21134;49.646;8.560;2023-03-20T07:25:17;2.80;;;1.40;;
34930;SDS011;21134;49.646;8.560;2023-03-20T07:27:44;5.80;;;1.83;;
34930;SDS011;21134;49.646;8.560;2023-03-20T07:30:14;1.63;;;1.03;;
34930;SDS011;21134;49.646;8.560;2023-03-20T07:32:41;2.57;;;1.57;;
34930;SDS011;21134;49.646;8.560;2023-03-20T07:35:08;4.73;;;1.43;;
34930;SDS011;21134;49.646;8.560;2023-03-20T07:37:35;2.80;;;1.47;;
34930;SDS011;21134;49.646;8.560;2023-03-20T07:40:03;5.27;;;1.63;;
34930;SDS011;21134;49.646;8.560;2023-03-20T07:42:30;3.50;;;1.80;;
34930;SDS011;21134;49.646;8.560;2023-03-20T07:44:57;3.23;;;1.97;;
34930;SDS011;21134;49.646;8.560;2023-03-20T07:47:23;2.67;;;1.80;;
34930;SDS011;21134;49.646;8.560;2023-03-20T07:49:50;3.97;;;1.73;;
34930;SDS011;21134;49.646;8.560;2023-03-20T07:52:17;5.50;;;1.77;;
34930;SDS011;21134;49.646;8.560;2023-03-20T07:54:43;4.30;;;1.83;;
34930;SDS011;21134;49.646;8.560;2023-03-20T07:57:11;2.20;;;2.00;;
34930;SDS011;21134;49.646;8.560;2023-03-20T07:59:38;4.90;;;2.37;;
34930;SDS011;21134;49.646;8.560;2023-03-20T08:02:04;2.07;;;1.37;;
34930;SDS011;21134;49.646;8.560;2023-03-20T08:04:31;11.60;;;3.33;;
34930;SDS011;21134;49.646;8.560;2023-03-20T08:06:57;6.40;;;2.57;;
34930;SDS011;21134;49.646;8.560;2023-03-20T08:09:24;8.00;;;3.60;;
34930;SDS011;21134;49.646;8.560;2023-03-20T08:11:51;7.50;;;1.90;;
34930;SDS011;21134;49.646;8.560;2023-03-20T08:14:18;5.37;;;2.20;;
34930;SDS011;21134;49.646;8.560;2023-03-20T08:16:45;4.73;;;2.30;;
34930;SDS011;21134;49.646;8.560;2023-03-20T08:19:11;5.13;;;3.00;;
34930;SDS011;21134;49.646;8.560;2023-03-20T08:21:38;2.90;;;1.70;;
34930;SDS011;21134;49.646;8.560;2023-03-20T08:24:05;3.70;;;1.90;;
34930;SDS011;21134;49.646;8.560;2023-03-20T08:26:32;5.97;;;1.97;;
34930;SDS011;21134;49.646;8.560;2023-03-20T08:28:59;3.83;;;2.83;;
34930;SDS011;21134;49.646;8.560;2023-03-20T08:31:27;3.63;;;1.57;;
34930;SDS011;21134;49.646;8.560;2023-03-20T08:33:54;4.43;;;2.23;;
34930;SDS011;21134;49.646;8.560;2023-03-20T08:36:21;3.40;;;2.20;;
34930;SDS011;21134;49.646;8.560;2023-03-20T08:38:48;2.23;;;1.57;;
34930;SDS011;21134;49.646;8.560;2023-03-20T08:41:15;5.00;;;3.27;;
34930;SDS011;21134;49.646;8.560;2023-03-20T08:43:42;4.67;;;2.93;;
34930;SDS011;21134;49.646;8.560;2023-03-20T08:46:09;3.60;;;2.17;;
34930;SDS011;21134;49.646;8.560;2023-03-20T08:48:37;13.33;;;1.83;;
34930;SDS011;21134;49.646;8.560;2023-03-20T08:51:03;9.73;;;2.87;;
34930;SDS011;21134;49.646;8.560;2023-03-20T08:53:31;5.43;;;2.17;;
34930;SDS011;21134;49.646;8.560;2023-03-20T08:55:57;3.40;;;1.57;;
34930;SDS011;21134;49.646;8.560;2023-03-20T08:58:24;5.90;;;1.97;;
34930;SDS011;21134;49.646;8.560;2023-03-20T09:00:51;3.40;;;2.30;;
34930;SDS011;21134;49.646;8.560;2023-03-20T09:03:19;5.40;;;2.30;;
34930;SDS011;21134;49.646;8.560;2023-03-20T09:05:48;4.90;;;2.50;;
34930;SDS011;21134;49.646;8.560;2023-03-20T09:08:16;21.30;;;2.73;;
34930;SDS011;21134;49.646;8.560;2023-03-20T09:10:43;3.23;;;1.97;;
34930;SDS011;21134;49.646;8.560;2023-03-20T09:13:12;2.40;;;1.70;;
34930;SDS011;21134;49.646;8.560;2023-03-20T09:15:38;6.60;;;2.70;;
34930;SDS011;21134;49.646;8.560;2023-03-20T09:18:05;8.30;;;2.27;;
34930;SDS011;21134;49.646;8.560;2023-03-20T09:20:31;3.40;;;2.37;;
34930;SDS011;21134;49.646;8.560;2023-03-20T09:22:59;6.07;;;3.40;;
34930;SDS011;21134;49.646;8.560;2023-03-20T09:25:25;15.90;;;2.93;;
34930;SDS011;21134;49.646;8.560;2023-03-20T09:27:52;3.67;;;2.60;;
34930;SDS011;21134;49.646;8.560;2023-03-20T09:30:20;12.33;;;2.57;;
34930;SDS011;21134;49.646;8.560;2023-03-20T09:32:47;4.43;;;1.90;;
34930;SDS011;21134;49.646;8.560;2023-03-20T09:35:14;5.53;;;2.67;;
34930;SDS011;21134;49.646;8.560;2023-03-20T09:37:41;6.70;;;3.87;;
34930;SDS011;21134;49.646;8.560;2023-03-20T09:40:11;11.57;;;4.03;;
34930;SDS011;21134;49.646;8.560;2023-03-20T09:42:48;4.47;;;2.73;;
34930;SDS011;21134;49.646;8.560;2023-03-20T09:45:23;13.27;;;3.80;;
34930;SDS011;21134;49.646;8.560;2023-03-20T09:48:00;11.43;;;4.73;;
34930;SDS011;21134;49.646;8.560;2023-03-20T09:50:31;8.50;;;3.10;;
34930;SDS011;21134;49.646;8.560;2023-03-20T09:53:03;10.47;;;4.00;;
34930;SDS011;21134;49.646;8.560;2023-03-20T09:55:36;8.90;;;4.90;;
34930;SDS011;21134;49.646;8.560;2023-03-20T09:58:09;12.67;;;4.93;;
34930;SDS011;21134;49.646;8.560;2023-03-20T10:00:38;15.93;;;4.40;;
34930;SDS011;21134;49.646;8.560;2023-03-20T10:03:10;6.20;;;3.10;;
34930;SDS011;21134;49.646;8.560;2023-03-20T10:05:43;14.10;;;5.30;;
34930;SDS011;21134;49.646;8.560;2023-03-20T10:08:14;12.13;;;5.03;;
34930;SDS011;21134;49.646;8.560;2023-03-20T10:10:48;11.23;;;4.40;;
34930;SDS011;21134;49.646;8.560;2023-03-20T10:16:12;13.00;;;3.57;;
34930;SDS011;21134;49.646;8.560;2023-03-20T10:18:45;9.67;;;4.70;;
34930;SDS011;21134;49.646;8.560;2023-03-20T10:21:17;9.17;;;3.53;;
34930;SDS011;21134;49.646;8.560;2023-03-20T10:23:51;4.80;;;2.73;;
34930;SDS011;21134;49.646;8.560;2023-03-20T10:26:27;6.73;;;3.37;;
34930;SDS011;21134;49.646;8.560;2023-03-20T10:28:57;8.70;;;3.73;;
34930;SDS011;21134;49.646;8.560;2023-03-20T10:31:30;8.07;;;3.73;;
34930;SDS011;21134;49.646;8.560;2023-03-20T10:34:06;6.90;;;3.07;;
34930;SDS011;21134;49.646;8.560;2023-03-20T10:36:53;4.83;;;2.93;;
34930;SDS011;21134;49.646;8.560;2023-03-20T10:39:33;9.70;;;3.43;;
34930;SDS011;21134;49.646;8.560;2023-03-20T10:42:16;11.10;;;3.57;;
34930;SDS011;21134;49.646;8.560;2023-03-20T10:44:48;7.87;;;2.70;;
34930;SDS011;21134;49.646;8.560;2023-03-20T10:47:20;6.60;;;2.97;;
34930;SDS011;21134;49.646;8.560;2023-03-20T10:49:54;9.53;;;3.50;;
34930;SDS011;21134;49.646;8.560;2023-03-20T10:52:27;4.87;;;1.80;;
34930;SDS011;21134;49.646;8.560;2023-03-20T10:54:57;8.30;;;2.67;;
34930;SDS011;21134;49.646;8.560;2023-03-20T10:57:27;4.07;;;2.30;;
34930;SDS011;21134;49.646;8.560;2023-03-20T10:59:58;4.97;;;1.90;;
34930;SDS011;21134;49.646;8.560;2023-03-20T11:02:27;10.23;;;3.13;;
34930;SDS011;21134;49.646;8.560;2023-03-20T11:04:56;3.83;;;2.13;;
34930;SDS011;21134;49.646;8.560;2023-03-20T11:07:26;3.63;;;2.00;;
34930;SDS011;21134;49.646;8.560;2023-03-20T11:10:05;7.70;;;2.17;;
34930;SDS011;21134;49.646;8.560;2023-03-20T11:12:36;4.30;;;2.23;;
34930;SDS011;21134;49.646;8.560;2023-03-20T11:15:13;12.47;;;3.23;;
34930;SDS011;21134;49.646;8.560;2023-03-20T11:17:49;5.73;;;2.30;;
34930;SDS011;21134;49.646;8.560;2023-03-20T11:20:17;3.87;;;2.60;;
34930;SDS011;21134;49.646;8.560;2023-03-20T11:22:43;4.07;;;1.90;;
34930;SDS011;21134;49.646;8.560;2023-03-20T11:25:21;4.50;;;1.43;;
34930;SDS011;21134;49.646;8.560;2023-03-20T11:27:51;4.50;;;2.23;;
34930;SDS011;21134;49.646;8.560;2023-03-20T11:30:19;7.83;;;3.30;;
34930;SDS011;21134;49.646;8.560;2023-03-20T11:32:46;4.90;;;2.63;;
34930;SDS011;21134;49.646;8.560;2023-03-20T11:35:18;7.03;;;4.27;;
34930;SDS011;21134;49.646;8.560;2023-03-20T11:37:48;5.63;;;3.23;;
34930;SDS011;21134;49.646;8.560;2023-03-20T11:40:21;5.33;;;3.03;;
34930;SDS011;21134;49.646;8.560;2023-03-20T11:42:54;5.53;;;3.07;;
34930;SDS011;21134;49.646;8.560;2023-03-20T11:45:22;2.67;;;1.87;;
34930;SDS011;21134;49.646;8.560;2023-03-20T11:47:49;2.57;;;1.60;;
34930;SDS011;21134;49.646;8.560;2023-03-20T11:50:24;7.50;;;2.20;;
34930;SDS011;21134;49.646;8.560;2023-03-20T11:52:55;9.20;;;3.13;;
34930;SDS011;21134;49.646;8.560;2023-03-20T11:55:23;6.23;;;2.83;;
34930;SDS011;21134;49.646;8.560;2023-03-20T11:57:55;9.00;;;2.83;;
34930;SDS011;21134;49.646;8.560;2023-03-20T12:00:24;3.57;;;2.50;;
34930;SDS011;21134;49.646;8.560;2023-03-20T12:02:53;3.43;;;1.87;;
34930;SDS011;21134;49.646;8.560;2023-03-20T12:05:27;6.47;;;2.33;;
34930;SDS011;21134;49.646;8.560;2023-03-20T12:07:56;6.17;;;2.40;;
34930;SDS011;21134;49.646;8.560;2023-03-20T12:10:27;8.03;;;2.67;;
34930;SDS011;21134;49.646;8.560;2023-03-20T12:13:03;3.20;;;1.90;;
34930;SDS011;21134;49.646;8.560;2023-03-20T12:15:38;3.77;;;1.97;;
34930;SDS011;21134;49.646;8.560;2023-03-20T12:18:09;4.60;;;2.23;;
34930;SDS011;21134;49.646;8.560;2023-03-20T12:20:42;5.93;;;2.30;;
34930;SDS011;21134;49.646;8.560;2023-03-20T12:23:12;10.10;;;2.80;;
34930;SDS011;21134;49.646;8.560;2023-03-20T12:25:42;5.47;;;2.70;;
34930;SDS011;21134;49.646;8.560;2023-03-20T12:28:19;5.33;;;2.17;;
34930;SDS011;21134;49.646;8.560;2023-03-20T12:30:53;9.70;;;2.83;;
34930;SDS011;21134;49.646;8.560;2023-03-20T12:33:30;7.00;;;2.57;;
34930;SDS011;21134;49.646;8.560;2023-03-20T12:36:07;4.67;;;2.70;;
34930;SDS011;21134;49.646;8.560;2023-03-20T12:38:39;3.30;;;1.93;;
34930;SDS011;21134;49.646;8.560;2023-03-20T12:41:10;2.33;;;1.33;;
34930;SDS011;21134;49.646;8.560;2023-03-20T12:43:46;4.90;;;1.83;;
34930;SDS011;21134;49.646;8.560;2023-03-20T12:46:32;4.23;;;1.90;;
34930;SDS011;21134;49.646;8.560;2023-03-20T12:49:07;4.47;;;2.23;;
34930;SDS011;21134;49.646;8.560;2023-03-20T12:51:47;6.03;;;1.97;;
34930;SDS011;21134;49.646;8.560;2023-03-20T12:54:23;5.20;;;2.80;;
34930;SDS011;21134;49.646;8.560;2023-03-20T12:57:05;11.53;;;4.33;;
34930;SDS011;21134;49.646;8.560;2023-03-20T12:59:44;4.90;;;2.23;;
34930;SDS011;21134;49.646;8.560;2023-03-20T13:02:25;6.17;;;3.27;;
34930;SDS011;21134;49.646;8.560;2023-03-20T13:05:02;5.10;;;2.10;;
34930;SDS011;21134;49.646;8.560;2023-03-20T13:07:41;4.37;;;3.00;;
34930;SDS011;21134;49.646;8.560;2023-03-20T13:10:21;4.37;;;1.63;;
34930;SDS011;21134;49.646;8.560;2023-03-20T13:12:51;4.17;;;2.20;;
34930;SDS011;21134;49.646;8.560;2023-03-20T13:15:30;9.73;;;4.10;;
34930;SDS011;21134;49.646;8.560;2023-03-20T13:18:15;5.43;;;2.30;;
34930;SDS011;21134;49.646;8.560;2023-03-20T13:20:49;4.47;;;2.73;;
34930;SDS011;21134;49.646;8.560;2023-03-20T13:23:21;3.27;;;1.10;;
34930;SDS011;21134;49.646;8.560;2023-03-20T13:26:02;10.77;;;3.57;;
34930;SDS011;21134;49.646;8.560;2023-03-20T13:28:44;6.27;;;3.33;;
34930;SDS011;21134;49.646;8.560;2023-03-20T13:31:25;2.70;;;1.33;;
34930;SDS011;21134;49.646;8.560;2023-03-20T13:34:01;2.90;;;1.67;;
34930;SDS011;21134;49.646;8.560;2023-03-20T13:36:40;4.30;;;1.40;;
34930;SDS011;21134;49.646;8.560;2023-03-20T13:39:17;2.50;;;1.70;;
34930;SDS011;21134;49.646;8.560;2023-03-20T13:41:47;3.83;;;2.67;;
34930;SDS011;21134;49.646;8.560;2023-03-20T13:44:16;6.27;;;1.80;;
34930;SDS011;21134;49.646;8.560;2023-03-20T13:46:48;4.40;;;2.17;;
34930;SDS011;21134;49.646;8.560;2023-03-20T13:49:19;3.20;;;2.07;;
34930;SDS011;21134;49.646;8.560;2023-03-20T13:51:52;1.87;;;1.63;;
34930;SDS011;21134;49.646;8.560;2023-03-20T13:54:35;1.00;;;0.90;;
34930;SDS011;21134;49.646;8.560;2023-03-20T13:57:12;3.10;;;1.40;;
34930;SDS011;21134;49.646;8.560;2023-03-20T13:59:55;1.30;;;0.90;;
34930;SDS011;21134;49.646;8.560;2023-03-20T14:02:33;7.37;;;1.40;;
34930;SDS011;21134;49.646;8.560;2023-03-20T14:05:11;1.63;;;1.53;;
34930;SDS011;21134;49.646;8.560;2023-03-20T14:07:42;1.70;;;1.00;;
34930;SDS011;21134;49.646;8.560;2023-03-20T14:13:04;1.83;;;1.37;;
34930;SDS011;21134;49.646;8.560;2023-03-20T14:15:36;2.97;;;1.33;;
34930;SDS011;21134;49.646;8.560;2023-03-20T14:18:12;1.90;;;1.03;;
34930;SDS011;21134;49.646;8.560;2023-03-20T14:20:41;0.93;;;0.87;;
34930;SDS011;21134;49.646;8.560;2023-03-20T14:23:14;1.50;;;0.80;;
34930;SDS011;21134;49.646;8.560;2023-03-20T14:25:43;3.07;;;1.40;;
34930;SDS011;21134;49.646;8.560;2023-03-20T14:28:21;1.97;;;1.20;;
34930;SDS011;21134;49.646;8.560;2023-03-20T14:30:51;1.00;;;0.77;;
34930;SDS011;21134;49.646;8.560;2023-03-20T14:33:42;1.00;;;0.93;;
34930;SDS011;21134;49.646;8.560;2023-03-20T14:36:10;3.33;;;1.63;;
34930;SDS011;21134;49.646;8.560;2023-03-20T14:38:43;6.90;;;0.70;;
34930;SDS011;21134;49.646;8.560;2023-03-20T14:41:14;4.37;;;1.87;;
34930;SDS011;21134;49.646;8.560;2023-03-20T14:43:51;1.83;;;1.13;;
34930;SDS011;21134;49.646;8.560;2023-03-20T14:46:29;1.93;;;1.33;;
34930;SDS011;21134;49.646;8.560;2023-03-20T14:49:23;2.17;;;1.40;;
34930;SDS011;21134;49.646;8.560;2023-03-20T14:51:59;1.33;;;1.20;;
34930;SDS011;21134;49.646;8.560;2023-03-20T14:54:34;1.65;;;1.10;;
34930;SDS011;21134;49.646;8.560;2023-03-20T14:57:07;5.53;;;2.07;;
34930;SDS011;21134;49.646;8.560;2023-03-20T14:59:35;1.53;;;1.23;;
34930;SDS011;21134;49.646;8.560;2023-03-20T15:02:02;2.77;;;1.50;;
34930;SDS011;21134;49.646;8.560;2023-03-20T15:04:37;5.47;;;1.80;;
34930;SDS011;21134;49.646;8.560;2023-03-20T15:07:09;3.00;;;2.08;;
34930;SDS011;21134;49.646;8.560;2023-03-20T15:09:41;1.90;;;1.23;;
34930;SDS011;21134;49.646;8.560;2023-03-20T15:12:09;1.33;;;1.23;;
34930;SDS011;21134;49.646;8.560;2023-03-20T15:14:40;1.05;;;0.88;;
34930;SDS011;21134;49.646;8.560;2023-03-20T15:17:15;6.90;;;2.03;;
34930;SDS011;21134;49.646;8.560;2023-03-20T15:19:44;4.60;;;1.27;;
34930;SDS011;21134;49.646;8.560;2023-03-20T15:22:13;3.10;;;1.30;;
34930;SDS011;21134;49.646;8.560;2023-03-20T15:24:41;1.47;;;1.00;;